• Join FlightAware (Why Join?)
  • Login
  • US Flag 
03:25PM EST


 

Airport Tracker/Info


-or-


 

Live Flight TrackerFlight Track Log ✈ DAL6057 ✈ 01-Nov-2013 ✈ KCMH - KDTW

Flight Track Log - Related Links

Times and Time Zones

All times are in EDT time to prevent confusion due to time zone crossing. See the DAL6057 flight status page for this flight to view local times or setup timezone preferences in your user account.

Time Position Orientation Groundspeed Altitude Reporting Facility
EDT Latitude Longitude Course Direction KTS MPH feet Rate Location/Type
06:45AM 40.0039 -82.9131 262° West 144 166 1,600  Level Indianapolis Center
06:45AM 40.0036 -82.9156 262° West 133 153 1,800 2,400 Climbing Indianapolis Center
06:45AM 40.0072 -82.9450 279° West 154 177 3,400 2,940 Climbing Indianapolis Center
06:46AM 40.0242 -82.9653 318° Northwest 183 211 4,800 3,000 Climbing Indianapolis Center
06:46AM 40.0639 -82.9394 26° Northeast 246 283 6,500 2,400 Climbing Indianapolis Center
06:47AM 40.1281 -82.8875 32° Northeast 270 311 8,800 2,220 Climbing Indianapolis Center
06:48AM 40.2033 -82.8450 23° Northeast 291 335 11,000 1,980 Climbing Indianapolis Center
06:49AM 40.2828 -82.7981 24° Northeast 326 375 12,800 1,740 Climbing Indianapolis Center
06:50AM 40.3750 -82.7450 24° Northeast 353 406 14,600 1,140 Climbing Indianapolis Center
06:51AM 40.4742 -82.6858 24° Northeast 381 438 15,200 240 Climbing Indianapolis Center
06:53AM 40.5778 -82.6264 24° Northeast 402 463 15,200  Level Indianapolis Center
06:54AM 40.6800 -82.5653 24° Northeast 400 460 15,200 -120 Level Indianapolis Center
06:55AM 40.7822 -82.5042 24° Northeast 400 460 15,000 -120 Descending Indianapolis Center
06:56AM 40.8844 -82.4436 24° Northeast 398 458 15,000  Level Indianapolis Center
06:57AM 40.9883 -82.3825 24° Northeast 404 465 15,000  Level Indianapolis Center
06:58AM 41.0947 -82.3181 25° Northeast 412 474 15,000  Level Indianapolis Center
06:59AM 41.2019 -82.2767 16° North 398 458 15,100  Climbing Indianapolis Center
07:00AM 41.2850 -82.3300 334° Northwest 336 387 15,100  Level Indianapolis Center
07:01AM 41.3572 -82.4042 322° Northwest 322 371 15,100  Level Indianapolis Center
07:02AM 41.4286 -82.4764 323° Northwest 320 368 15,100 -120 Level Indianapolis Center
07:03AM 41.5253 -82.5742 323° Northwest 323 372 14,900 -420 Descending Cleveland Center
07:03AM 41.5456 -82.5944 323° Northwest 325 374 14,500 -1,320 Descending Cleveland Center
07:04AM 41.5786 -82.6294 322° Northwest 325 374 14,000 -1,080 Descending Cleveland Center
07:04AM 41.5975 -82.6469 325° Northwest 321 369 13,700 -1,920 Descending Cleveland Center
07:05AM 41.6489 -82.6997 323° Northwest 316 364 12,100 -1,680 Descending Cleveland Center
07:05AM 41.6653 -82.7164 323° Northwest 314 361 12,000 -120 Descending Cleveland Center
07:06AM 41.7189 -82.7731 322° Northwest 299 344 12,000  Level Cleveland Center
07:06AM 41.7311 -82.7853 323° Northwest 303 349 12,000  Level Cleveland Center
07:07AM 41.7942 -82.8614 318° Northwest 307 353 12,000  Level Cleveland Center
07:07AM 41.7944 -82.8600 75° East 304 350 12,000  Level Cleveland Center
07:08AM 41.8575 -82.9369 318° Northwest 304 350 12,000  Level Cleveland Center
07:08AM 41.8575 -82.9367 90° East 306 352 12,000  Level Cleveland Center
07:09AM 41.9189 -83.0125 317° Northwest 304 350 12,000  Level Cleveland Center
07:09AM 41.9203 -83.0111 37° Northeast 303 349 12,000  Level Cleveland Center
07:10AM 41.9733 -83.0958 310° West 297 342 12,000  Level Cleveland Center
07:10AM 41.9839 -83.1144 307° West 302 348 12,000  Level Cleveland Center
07:11AM 42.0194 -83.1778 307° West 298 343 12,000  Level Cleveland Center
07:11AM 42.0339 -83.2031 308° West 299 344 12,000  Level Cleveland Center
07:12AM 42.0433 -83.2958 278° West 294 338 12,000  Level Cleveland Center
07:13AM 42.0811 -83.3581 309° West 275 316 12,000  Level Cleveland Center
07:13AM 42.0906 -83.3658 329° Northwest 259 298 12,000  Level Cleveland Center
07:14AM 42.1353 -83.4133 322° Northwest 227 261 12,000  Level Cleveland Center
07:14AM 42.1500 -83.4281 323° Northwest 230 265 12,000  Level Cleveland Center
07:15AM 42.1839 -83.4625 323° Northwest 221 254 12,000  Level Cleveland Center
07:15AM 42.2000 -83.4783 324° Northwest 223 257 12,000 -480 Level Cleveland Center
07:16AM 42.2556 -83.4842 356° North 252 290 11,500 -780 Descending Cleveland Center
07:16AM 42.2692 -83.4756 25° Northeast 247 284 11,200 -1,620 Descending Cleveland Center
07:17AM 42.3242 -83.4375 27° Northeast 267 307 9,900 -1,620 Descending Cleveland Center
07:17AM 42.3353 -83.4272 34° Northeast 261 300 9,600 -1,680 Descending Cleveland Center
07:18AM 42.3839 -83.3981 24° Northeast 262 302 8,400 -1,680 Descending Cleveland Center
07:18AM 42.4031 -83.3856 26° Northeast 261 300 7,900 -1,620 Descending Cleveland Center
07:19AM 42.4497 -83.3592 23° Northeast 260 299 6,800 -1,500 Descending Cleveland Center
07:19AM 42.4669 -83.3453 31° Northeast 258 297 6,400 -1,620 Descending Cleveland Center
07:20AM 42.5097 -83.3139 28° Northeast 254 292 5,200 -1,620 Descending Cleveland Center
07:20AM 42.5164 -83.2844 73° East 261 300 4,800 -1,200 Descending Cleveland Center
07:21AM 42.5008 -83.2136 107° East 260 299 4,000 -780 Descending Cleveland Center
07:21AM 42.4914 -83.1944 124° Southeast 256 295 4,000  Level Cleveland Center
07:22AM 42.4561 -83.1961 182° South 152 175 4,000  Level Cleveland Center
07:22AM 42.4461 -83.2008 199° South 174 200 4,000 -120 Level Cleveland Center
07:23AM 42.4183 -83.2247 212° Southwest 157 181 3,900 -300 Descending Cleveland Center
07:23AM 42.4081 -83.2300 201° Southwest 158 182 3,700 -840 Descending Cleveland Center
07:24AM 42.3739 -83.2553 209° Southwest 153 176 3,000 -720 Descending Cleveland Center
07:24AM 42.3700 -83.2586 212° Southwest 156 180 3,000  Level Cleveland Center
07:25AM 42.3361 -83.2839 209° Southwest 160 184 3,000 -120 Level Cleveland Center
07:25AM 42.3239 -83.2928 208° Southwest 156 180 2,900 -720 Descending Cleveland Center
07:26AM 42.2961 -83.3150 211° Southwest 134 154 2,300 -840 Descending Cleveland Center
07:26AM 42.2869 -83.3200 202° Southwest 151 174 2,100 -720 Descending Cleveland Center
07:27AM 42.2672 -83.3361 211° Southwest 123 142 1,600 -720 Descending Cleveland Center
07:27AM 42.2569 -83.3414 201° Southwest 130 150 1,400 -720 Descending Cleveland Center
07:28AM 42.2358 -83.3600 213° Southwest 126 145 900 -420 Descending Cleveland Center
07:28AM 42.2294 -83.3628 198° South 128 147 1,000 240 Climbing Cleveland Center